< < Back
Terminal Aerodrome Forecast


Current Version              Previous Versions:   1  2  3  4  5  6  7  8  9  

Terminal Aerodrome Forecast

833
FTUS44 KMRX 271122
TAFCHA
TAF
KCHA 271122Z 2712/2812 35012KT P6SM OVC035
     FM271800 33011G16KT P6SM SCT050 BKN090
     FM272000 33012KT P6SM OVC050
     FM280500 34009KT P6SM SCT050=



Latest METAR

954
SAUS80 KWBC 271100 RRA
MTRCHA
METAR KCHA 271053Z 34010KT 10SM BKN037 07/03 A2986 RMK AO2 SLP109
T00720028 $


USA.gov is the U.S. government's official web portal to all federal, state and local government web resources and services.